Time;durP1;ratioP1;P1;durP2;ratioP2;P2;SDS_P1;SDS_P2;PMS_P1;PMS_P2;Temp;Humidity;BMP_temperature;BMP_pressure;BME280_temperature;BME280_humidity;BME280_pressure;Samples;Min_cycle;Max_cycle;Signal;HPM_P1;HPM_P2
2021/10/14 00:01:12;;;;;;;9.27;7.20;;;9.80;99.90;;;9.39;100.00;102379.63;4117145;28;20583;-69
2021/10/14 00:03:13;;;;;;;8.68;6.97;;;9.70;99.90;;;9.35;100.00;102373.72;4116984;28;20042;-69
2021/10/14 00:05:16;;;;;;;9.93;7.35;;;9.70;99.90;;;9.37;100.00;102378.91;4116730;28;20062;-69
2021/10/14 00:07:16;;;;;;;9.48;7.57;;;9.70;99.90;;;9.37;100.00;102378.91;4117350;28;20446;-69
2021/10/14 00:09:17;;;;;;;7.97;6.70;;;9.70;99.90;;;9.40;100.00;102373.44;4117011;28;20045;-69
2021/10/14 00:11:18;;;;;;;10.45;7.53;;;9.80;99.90;;;9.42;100.00;102368.88;4117070;28;20026;-69
2021/10/14 00:13:19;;;;;;;11.25;7.72;;;9.70;99.90;;;9.43;100.00;102379.31;4117974;28;20034;-69
2021/10/14 00:15:21;;;;;;;8.55;7.63;;;9.70;99.90;;;9.36;100.00;102370.16;4117022;28;20035;-69
2021/10/14 00:17:23;;;;;;;10.02;8.07;;;9.70;99.90;;;9.44;100.00;102370.44;4116625;28;20053;-69
2021/10/14 00:19:24;;;;;;;11.05;7.80;;;9.70;99.90;;;9.41;100.00;102367.19;4100947;28;20090;-69
2021/10/14 00:21:25;;;;;;;9.90;8.65;;;9.70;99.90;;;9.46;100.00;102375.63;4116346;28;20497;-69
2021/10/14 00:23:26;;;;;;;11.43;8.38;;;9.80;99.90;;;9.43;100.00;102370.56;4118043;28;20038;-69
2021/10/14 00:25:27;;;;;;;9.02;7.13;;;9.80;99.90;;;9.44;100.00;102377.50;4118076;28;20031;-69
2021/10/14 00:27:28;;;;;;;9.18;7.82;;;9.80;99.90;;;9.37;100.00;102371.84;4117586;28;20080;-69
2021/10/14 00:29:29;;;;;;;9.52;7.72;;;9.70;99.90;;;9.36;100.00;102377.22;4117880;28;20027;-69
2021/10/14 00:31:30;;;;;;;7.50;6.80;;;9.70;99.90;;;9.33;100.00;102369.53;4118076;28;20039;-69
2021/10/14 00:33:31;;;;;;;9.52;7.38;;;9.70;99.90;;;9.40;100.00;102371.63;4116713;28;20121;-69
2021/10/14 00:35:32;;;;;;;9.85;6.97;;;9.70;99.90;;;9.36;100.00;102367.53;4116477;28;20035;-69
2021/10/14 00:37:33;;;;;;;11.05;7.88;;;9.70;99.90;;;9.39;100.00;102380.47;4100530;28;20035;-69
2021/10/14 00:39:34;;;;;;;10.77;7.03;;;9.70;99.90;;;9.30;100.00;102369.75;4117856;28;20038;-69
2021/10/14 00:41:35;;;;;;;10.32;7.22;;;9.70;99.90;;;9.35;100.00;102379.00;4116489;28;20045;-69
2021/10/14 00:43:36;;;;;;;11.35;6.95;;;9.60;99.90;;;9.32;100.00;102367.84;4116457;28;20501;-69
2021/10/14 00:45:37;;;;;;;12.60;7.13;;;9.70;99.90;;;9.35;100.00;102376.38;4117735;28;20030;-69
2021/10/14 00:47:38;;;;;;;11.48;7.53;;;9.70;99.90;;;9.32;100.00;102379.22;4117743;28;20457;-69
2021/10/14 00:49:39;;;;;;;9.40;7.53;;;9.70;99.90;;;9.32;100.00;102383.63;4116492;28;20049;-69
2021/10/14 00:51:40;;;;;;;10.52;7.65;;;9.70;99.90;;;9.34;100.00;102376.50;4117448;28;20034;-69
2021/10/14 00:53:41;;;;;;;9.57;7.60;;;9.60;99.90;;;9.31;100.00;102379.34;4116448;28;20038;-69
2021/10/14 00:55:42;;;;;;;13.20;8.73;;;9.60;99.90;;;9.26;100.00;102368.28;4116298;28;20031;-69
2021/10/14 00:57:43;;;;;;;12.80;8.98;;;9.60;99.90;;;9.21;100.00;102373.88;4116441;28;20023;-69
2021/10/14 00:59:45;;;;;;;12.23;9.45;;;9.60;99.90;;;9.26;100.00;102378.81;4116429;28;20038;-69
2021/10/14 01:01:45;;;;;;;11.30;8.63;;;9.60;99.90;;;9.27;100.00;102375.22;4116341;28;20031;-69
2021/10/14 01:03:46;;;;;;;10.80;8.65;;;9.50;99.90;;;9.24;100.00;102372.81;4116191;28;20221;-69
2021/10/14 01:05:47;;;;;;;10.65;9.55;;;9.60;99.90;;;9.25;100.00;102374.50;4116110;28;20042;-69
2021/10/14 01:07:48;;;;;;;10.00;8.90;;;9.60;99.90;;;9.16;100.00;102372.50;4117489;28;20031;-69
2021/10/14 01:09:49;;;;;;;11.23;8.55;;;9.60;99.90;;;9.18;100.00;102378.50;4116314;28;20027;-69
2021/10/14 01:11:51;;;;;;;10.10;9.05;;;9.50;99.90;;;9.17;100.00;102375.03;4116298;28;20038;-69
2021/10/14 01:13:51;;;;;;;10.48;8.40;;;9.50;99.90;;;9.10;100.00;102365.88;4117467;28;20100;-69
2021/10/14 01:15:52;;;;;;;11.48;9.00;;;9.50;99.90;;;9.16;100.00;102368.09;4117249;28;20030;-69
2021/10/14 01:17:56;;;;;;;13.70;9.02;;;9.50;99.90;;;9.17;100.00;102363.69;4117365;28;20076;-70
2021/10/14 01:19:57;;;;;;;13.48;9.23;;;9.50;99.90;;;9.13;100.00;102368.31;4100175;28;20494;-69
2021/10/14 01:21:58;;;;;;;11.95;8.15;;;9.50;99.90;;;9.14;100.00;102362.06;4106319;28;20027;-69
2021/10/14 01:24:00;;;;;;;10.27;8.48;;;9.50;99.90;;;9.12;100.00;102363.13;4116124;28;20109;-69
2021/10/14 01:26:02;;;;;;;11.02;8.45;;;9.50;99.90;;;9.06;100.00;102366.19;4116155;28;20030;-69
2021/10/14 01:28:03;;;;;;;12.43;8.35;;;9.40;99.90;;;9.07;100.00;102365.25;4115988;28;20076;-69
2021/10/14 01:30:07;;;;;;;8.77;7.72;;;9.40;99.90;;;9.04;100.00;102366.31;4117411;28;20050;-69
2021/10/14 01:32:08;;;;;;;8.90;7.35;;;9.40;99.90;;;9.04;100.00;102362.84;4117346;28;20027;-69
2021/10/14 01:34:09;;;;;;;11.63;8.60;;;9.40;99.90;;;9.02;100.00;102352.41;4116007;28;20129;-69
2021/10/14 01:36:10;;;;;;;9.98;8.95;;;9.40;99.90;;;9.07;100.00;102355.56;4115801;28;20031;-69
2021/10/14 01:38:11;;;;;;;10.07;7.75;;;9.30;99.90;;;9.05;100.00;102361.91;4117339;28;20042;-69
2021/10/14 01:40:12;;;;;;;10.05;8.30;;;9.40;99.90;;;9.01;100.00;102363.91;4118744;28;20117;-69
2021/10/14 01:42:13;;;;;;;13.50;8.95;;;9.30;99.90;;;8.99;100.00;102354.44;4118906;28;20406;-69
2021/10/14 01:44:14;;;;;;;9.23;8.30;;;9.30;99.90;;;9.00;100.00;102358.72;4119889;28;20117;-69
2021/10/14 01:46:15;;;;;;;8.70;7.75;;;9.30;99.90;;;8.96;100.00;102349.38;4118825;28;20101;-69
2021/10/14 01:48:17;;;;;;;10.82;7.60;;;9.30;99.90;;;8.93;100.00;102360.94;4118810;28;20521;-69
2021/10/14 01:50:17;;;;;;;12.43;7.78;;;9.20;99.90;;;8.88;100.00;102358.63;4118492;28;20483;-69
2021/10/14 01:52:18;;;;;;;7.35;6.40;;;9.30;99.90;;;8.75;100.00;102349.06;4118684;28;20054;-69
2021/10/14 01:54:20;;;;;;;7.75;6.95;;;9.20;99.90;;;8.79;100.00;102364.53;4120051;28;20509;-69
2021/10/14 01:56:21;;;;;;;8.35;7.05;;;9.10;99.90;;;8.79;100.00;102361.03;4102698;29;20118;-69
2021/10/14 01:58:22;;;;;;;8.63;6.95;;;9.10;99.90;;;8.75;100.00;102356.97;4114907;28;20030;-69
2021/10/14 02:00:23;;;;;;;9.15;6.82;;;9.10;99.90;;;8.76;100.00;102356.84;4119781;28;20401;-69
2021/10/14 02:02:24;;;;;;;8.95;6.68;;;9.00;99.90;;;8.70;100.00;102349.38;4118587;28;20054;-69
2021/10/14 02:04:25;;;;;;;10.63;7.75;;;9.00;99.90;;;8.66;100.00;102340.00;4118683;28;20026;-69
2021/10/14 02:06:26;;;;;;;7.00;6.22;;;9.00;99.90;;;8.63;100.00;102342.81;4102295;29;20087;-69
2021/10/14 02:08:27;;;;;;;11.77;6.85;;;9.00;99.90;;;8.64;100.00;102349.78;4117460;28;20027;-69
2021/10/14 02:10:29;;;;;;;10.40;6.13;;;8.90;99.90;;;8.63;100.00;102342.00;4118696;28;20105;-69
2021/10/14 02:12:30;;;;;;;10.55;7.38;;;8.90;99.90;;;8.55;100.00;102339.03;4119759;28;20019;-69
2021/10/14 02:14:31;;;;;;;8.52;6.78;;;8.90;99.90;;;8.61;100.00;102346.50;4118558;28;20049;-69
2021/10/14 02:16:32;;;;;;;10.02;6.97;;;8.90;99.90;;;8.56;100.00;102341.59;4119515;28;20050;-69
2021/10/14 02:18:33;;;;;;;10.85;7.22;;;8.90;99.90;;;8.50;100.00;102346.41;4118560;28;20069;-69
2021/10/14 02:20:34;;;;;;;11.93;6.45;;;8.80;99.90;;;8.48;100.00;102336.00;4118229;28;20060;-69
2021/10/14 02:22:35;;;;;;;7.15;6.43;;;8.80;99.90;;;8.42;100.00;102344.31;4119529;28;20027;-69
2021/10/14 02:24:36;;;;;;;6.55;5.88;;;8.80;99.90;;;8.38;100.00;102341.97;4119484;28;20042;-69
2021/10/14 02:26:37;;;;;;;7.80;6.13;;;8.70;99.90;;;8.33;100.00;102332.59;4118375;28;20023;-69
2021/10/14 02:28:39;;;;;;;8.38;6.30;;;8.70;99.90;;;8.34;100.00;102328.19;4118390;28;20031;-69
2021/10/14 02:30:39;;;;;;;9.20;5.60;;;8.70;99.90;;;8.37;100.00;102337.66;4119511;28;20111;-69
2021/10/14 02:32:41;;;;;;;9.52;6.15;;;8.70;99.90;;;8.31;100.00;102320.50;4118185;28;20034;-69
2021/10/14 02:34:42;;;;;;;8.85;6.07;;;8.70;99.90;;;8.39;100.00;102328.72;4119433;28;20023;-69
2021/10/14 02:36:42;;;;;;;9.93;6.22;;;8.70;99.90;;;8.28;100.00;102328.59;4118067;28;20031;-69
2021/10/14 02:38:43;;;;;;;9.60;6.72;;;8.60;99.90;;;8.29;100.00;102338.16;4118195;28;20034;-69
2021/10/14 02:40:44;;;;;;;6.90;5.82;;;8.60;99.90;;;8.21;100.00;102335.19;4119220;28;20023;-69
2021/10/14 02:42:45;;;;;;;7.15;5.45;;;8.60;99.90;;;8.23;100.00;102330.66;4118022;28;20045;-69
2021/10/14 02:44:46;;;;;;;8.25;6.15;;;8.60;99.90;;;8.25;100.00;102329.59;4118236;28;20023;-69
2021/10/14 02:46:47;;;;;;;7.90;5.47;;;8.60;99.90;;;8.11;100.00;102331.47;4102065;29;20038;-69
2021/10/14 02:48:48;;;;;;;7.78;5.40;;;8.50;99.90;;;7.95;100.00;102333.41;4130623;28;20061;-69
2021/10/14 02:50:49;;;;;;;9.70;6.57;;;8.40;99.90;;;7.94;100.00;102337.84;4117628;28;20026;-69
2021/10/14 02:52:50;;;;;;;11.90;6.85;;;8.40;99.90;;;7.93;100.00;102333.53;4118137;28;20046;-69
2021/10/14 02:54:51;;;;;;;7.32;5.88;;;8.40;99.90;;;7.88;100.00;102329.53;4118026;28;20035;-69
2021/10/14 02:56:52;;;;;;;8.48;6.13;;;8.30;99.90;;;7.89;100.00;102334.66;4118004;28;20092;-69
2021/10/14 02:58:52;;;;;;;6.32;5.72;;;8.30;99.90;;;7.92;100.00;102333.59;4119267;28;20042;-69
2021/10/14 03:00:53;;;;;;;7.80;5.68;;;8.30;99.90;;;7.90;100.00;102325.00;4118024;28;20070;-69
2021/10/14 03:02:54;;;;;;;8.15;5.53;;;8.30;99.90;;;7.93;100.00;102330.91;4117789;28;20027;-69
2021/10/14 03:04:55;;;;;;;5.75;4.90;;;8.30;99.90;;;7.96;100.00;102332.47;4119061;28;20452;-69
2021/10/14 03:06:56;;;;;;;7.45;5.78;;;8.30;99.90;;;7.90;100.00;102325.84;4101782;28;20406;-69
2021/10/14 03:08:57;;;;;;;6.43;4.85;;;8.20;99.90;;;7.84;100.00;102328.88;4117826;28;20027;-69
2021/10/14 03:10:58;;;;;;;10.38;5.43;;;8.20;99.90;;;7.88;100.00;102324.25;4117924;28;20077;-69
2021/10/14 03:12:59;;;;;;;10.65;5.50;;;8.20;99.90;;;7.95;100.00;102333.41;4101774;28;20089;-69
2021/10/14 03:15:00;;;;;;;7.60;6.20;;;8.20;99.90;;;7.97;100.00;102328.91;4118849;28;20035;-69
2021/10/14 03:17:01;;;;;;;6.93;5.55;;;8.20;99.90;;;7.85;100.00;102321.84;4117684;28;20538;-69
2021/10/14 03:19:02;;;;;;;7.53;5.38;;;8.20;99.90;;;7.87;100.00;102330.44;4118960;28;20041;-69
2021/10/14 03:21:03;;;;;;;7.80;5.53;;;8.20;99.90;;;7.81;100.00;102326.44;4118595;28;20030;-69
2021/10/14 03:23:04;;;;;;;7.97;5.88;;;8.20;99.90;;;7.83;100.00;102335.06;4117431;28;20034;-69
2021/10/14 03:25:07;;;;;;;10.27;5.80;;;8.20;99.90;;;7.82;100.00;102337.78;4117648;28;20031;-69
2021/10/14 03:27:08;;;;;;;7.00;5.40;;;8.20;99.90;;;7.75;100.00;102337.34;4118793;28;20027;-69
2021/10/14 03:29:09;;;;;;;10.05;6.32;;;8.10;99.90;;;7.64;100.00;102331.94;4117692;28;20027;-69
2021/10/14 03:31:10;;;;;;;11.60;7.00;;;8.10;99.90;;;7.64;100.00;102337.19;4118675;28;20049;-69
2021/10/14 03:33:11;;;;;;;9.07;6.90;;;8.00;99.90;;;7.61;100.00;102340.88;4117609;28;20122;-69
2021/10/14 03:35:12;;;;;;;8.07;6.75;;;8.00;99.90;;;7.54;100.00;102336.94;4117268;28;20038;-69
2021/10/14 03:37:13;;;;;;;9.48;6.68;;;8.00;99.90;;;7.57;100.00;102339.38;4118718;28;20031;-69
2021/10/14 03:39:14;;;;;;;9.35;6.55;;;8.00;99.90;;;7.57;100.00;102342.00;4117515;28;20141;-69
2021/10/14 03:41:15;;;;;;;8.10;6.00;;;8.00;99.90;;;7.62;100.00;102337.28;4117751;28;20031;-69
2021/10/14 03:43:16;;;;;;;7.28;6.25;;;8.00;99.90;;;7.56;100.00;102342.06;4117448;28;20101;-69
2021/10/14 03:45:16;;;;;;;6.38;5.70;;;7.90;99.90;;;7.40;100.00;102339.59;4117442;28;20030;-69
2021/10/14 03:47:18;;;;;;;8.93;6.25;;;7.80;99.90;;;7.37;100.00;102337.16;4118511;28;20034;-69
2021/10/14 03:49:19;;;;;;;11.48;6.90;;;7.80;99.90;;;7.30;100.00;102335.84;4117345;28;20027;-69
2021/10/14 03:51:20;;;;;;;9.82;7.38;;;7.80;99.90;;;7.34;100.00;102342.59;4116987;28;20425;-69
2021/10/14 03:53:20;;;;;;;9.43;6.85;;;7.80;99.90;;;7.32;100.00;102343.66;4118442;28;20502;-69
2021/10/14 03:55:21;;;;;;;10.07;6.60;;;7.70;99.90;;;7.30;100.00;102341.09;4118407;28;20049;-69
2021/10/14 03:57:22;;;;;;;10.75;6.93;;;7.70;99.90;;;7.39;100.00;102337.91;4118434;28;20109;-69
2021/10/14 03:59:23;;;;;;;8.43;6.97;;;7.70;99.90;;;7.39;100.00;102343.16;4117478;28;20035;-69
2021/10/14 04:01:24;;;;;;;12.13;6.63;;;7.70;99.90;;;7.29;100.00;102339.41;4116506;28;20034;-69
2021/10/14 04:03:25;;;;;;;8.88;6.90;;;7.70;99.90;;;7.13;100.00;102336.06;4118241;28;20034;-69
2021/10/14 04:05:26;;;;;;;10.57;7.00;;;7.60;99.90;;;7.19;100.00;102339.16;4116765;28;20118;-69
2021/10/14 04:07:27;;;;;;;12.40;8.50;;;7.60;99.90;;;7.14;100.00;102341.22;4118413;28;20106;-69
2021/10/14 04:09:28;;;;;;;8.27;6.93;;;7.60;99.90;;;7.09;100.00;102345.06;4117113;28;20034;-69
2021/10/14 04:11:29;;;;;;;11.25;8.30;;;7.60;99.90;;;7.05;100.00;102327.81;4118250;28;20425;-69
2021/10/14 04:13:30;;;;;;;9.07;8.13;;;7.50;99.90;;;7.15;100.00;102331.56;4100922;29;20031;-69
2021/10/14 04:15:31;;;;;;;9.27;7.82;;;7.60;99.90;;;7.16;100.00;102331.47;4106097;28;20034;-69
2021/10/14 04:17:32;;;;;;;12.68;8.13;;;7.60;99.90;;;7.10;100.00;102325.75;4117922;28;20449;-69
2021/10/14 04:19:33;;;;;;;8.02;6.97;;;7.60;99.90;;;7.15;100.00;102326.31;4118173;28;20030;-69
2021/10/14 04:21:36;;;;;;;10.57;7.38;;;7.60;99.90;;;7.15;100.00;102326.31;4116597;28;20038;-69
2021/10/14 04:23:42;;;;;;;8.57;7.57;;;7.50;99.90;;;7.09;100.00;102319.66;4118087;28;20023;-69
2021/10/14 04:25:43;;;;;;;8.98;6.68;;;7.50;99.90;;;7.17;100.00;102319.16;4118106;28;20058;-69
2021/10/14 04:27:44;;;;;;;8.48;6.80;;;7.60;99.90;;;7.20;100.00;102324.22;4118041;28;20026;-69
2021/10/14 04:29:45;;;;;;;11.35;7.85;;;7.50;99.90;;;7.15;100.00;102321.91;4100740;29;20506;-69
2021/10/14 04:31:46;;;;;;;7.88;7.07;;;7.60;99.90;;;7.15;100.00;102316.66;4116842;28;20145;-69
2021/10/14 04:33:47;;;;;;;9.68;8.13;;;7.50;99.90;;;7.14;100.00;102317.59;4118004;28;20037;-69
2021/10/14 04:35:48;;;;;;;9.52;7.30;;;7.50;99.90;;;7.21;100.00;102302.31;4116537;28;20529;-69
2021/10/14 04:37:49;;;;;;;9.88;7.20;;;7.50;99.90;;;7.17;100.00;102306.06;4117827;28;20042;-69
2021/10/14 04:39:50;;;;;;;9.85;6.93;;;7.50;99.90;;;7.19;100.00;102306.81;4116788;28;20027;-69
2021/10/14 04:41:51;;;;;;;10.20;7.40;;;7.50;99.90;;;7.12;100.00;102302.88;4116696;28;20041;-69
2021/10/14 04:43:52;;;;;;;13.57;7.30;;;7.50;99.90;;;7.18;100.00;102310.38;4100581;29;20522;-69
2021/10/14 04:45:53;;;;;;;7.65;6.50;;;7.50;99.90;;;7.18;100.00;102313.00;4117708;28;20406;-69
2021/10/14 04:47:54;;;;;;;8.73;5.93;;;7.50;99.90;;;7.14;100.00;102304.47;4116609;28;20026;-69
2021/10/14 04:49:55;;;;;;;7.93;6.20;;;7.50;99.90;;;7.09;99.78;102301.28;4117547;28;20076;-69
2021/10/14 04:51:56;;;;;;;7.35;6.05;;;7.40;99.90;;;7.10;99.42;102307.41;4117614;28;20050;-69
2021/10/14 04:53:57;;;;;;;7.45;5.78;;;7.40;99.90;;;7.01;100.00;102310.59;4100409;29;20035;-69
2021/10/14 04:55:58;;;;;;;8.45;6.20;;;7.40;99.90;;;6.99;100.00;102308.03;4106730;28;20080;-69
2021/10/14 04:58:00;;;;;;;7.45;6.65;;;7.40;99.90;;;6.95;100.00;102305.72;4117707;28;20050;-69
2021/10/14 05:00:01;;;;;;;7.00;6.30;;;7.40;99.90;;;6.91;100.00;102312.06;4117630;28;20041;-69
2021/10/14 05:02:03;;;;;;;7.80;6.50;;;7.30;99.90;;;6.89;100.00;102313.97;4117507;28;20027;-69
2021/10/14 05:04:04;;;;;;;6.25;5.65;;;7.30;99.90;;;7.01;100.00;102308.81;4116481;28;20084;-69
2021/10/14 05:06:05;;;;;;;7.32;6.20;;;7.30;99.90;;;6.95;100.00;102301.31;4116269;28;20061;-69
2021/10/14 05:08:07;;;;;;;7.43;6.03;;;7.30;99.90;;;6.89;100.00;102309.56;4117581;28;20508;-69
2021/10/14 05:10:08;;;;;;;5.95;5.32;;;7.30;99.90;;;6.93;100.00;102320.72;4100379;28;20573;-69
2021/10/14 05:12:09;;;;;;;9.35;6.50;;;7.30;99.90;;;6.90;100.00;102311.22;4105210;28;20108;-69
2021/10/14 05:14:10;;;;;;;6.68;5.97;;;7.30;99.90;;;6.93;100.00;102308.41;4117492;28;20034;-69
2021/10/14 05:16:11;;;;;;;9.43;6.72;;;7.30;99.90;;;6.86;100.00;102315.00;4116223;28;20453;-69
2021/10/14 05:18:12;;;;;;;7.43;6.10;;;7.30;99.90;;;6.84;100.00;102318.66;4117344;28;20070;-69
2021/10/14 05:20:13;;;;;;;6.45;5.68;;;7.20;99.90;;;6.90;99.59;102316.47;4117221;28;20034;-69
2021/10/14 05:22:14;;;;;;;6.80;5.55;;;7.20;99.90;;;6.94;98.82;102314.50;4117421;28;20113;-69
2021/10/14 05:24:15;;;;;;;12.25;6.47;;;7.20;99.90;;;6.89;98.42;102313.97;4117279;28;20031;-69
2021/10/14 05:26:16;;;;;;;6.45;4.97;;;7.20;99.90;;;6.78;99.06;102303.28;4117224;28;20041;-69
2021/10/14 05:28:17;;;;;;;9.82;6.00;;;7.20;99.90;;;6.74;99.96;102307.03;4116256;28;20094;-69
2021/10/14 05:30:19;;;;;;;8.18;5.25;;;7.20;99.90;;;6.69;99.86;102302.03;4099923;29;20476;-69
2021/10/14 05:32:20;;;;;;;8.15;5.63;;;7.20;99.90;;;6.74;100.00;102309.66;4132014;28;20023;-69
2021/10/14 05:34:21;;;;;;;6.25;5.28;;;7.10;99.90;;;6.76;100.00;102305.16;4117066;28;20054;-69
2021/10/14 05:36:22;;;;;;;8.38;5.80;;;7.10;99.90;;;6.73;100.00;102303.56;4111075;28;20038;-69
2021/10/14 05:38:23;;;;;;;6.18;5.20;;;7.10;99.90;;;6.75;100.00;102312.16;4117202;28;20035;-70
2021/10/14 05:40:24;;;;;;;6.22;5.28;;;7.10;99.90;;;6.75;99.45;102311.34;4117240;28;20058;-70
2021/10/14 05:42:25;;;;;;;7.25;5.10;;;7.10;99.90;;;6.68;99.62;102314.34;4115693;28;20043;-69
2021/10/14 05:44:26;;;;;;;6.63;5.32;;;7.10;99.90;;;6.71;99.28;102320.31;4117027;28;20085;-69
2021/10/14 05:46:27;;;;;;;6.88;5.85;;;7.10;99.90;;;6.74;98.85;102314.91;4117068;28;20055;-69
2021/10/14 05:48:28;;;;;;;8.13;5.25;;;7.10;99.90;;;6.63;99.30;102323.41;4116933;28;20062;-69
2021/10/14 05:50:29;;;;;;;6.85;5.30;;;7.10;99.90;;;6.56;99.98;102328.19;4115531;28;20102;-69
2021/10/14 05:52:30;;;;;;;10.73;5.68;;;7.10;99.90;;;6.47;100.00;102326.09;4115973;28;20023;-69
2021/10/14 05:54:31;;;;;;;6.70;5.72;;;7.00;99.90;;;6.42;100.00;102324.69;4115893;28;20039;-69
2021/10/14 05:56:32;;;;;;;8.82;5.70;;;6.90;99.90;;;6.47;100.00;102320.88;4115556;28;20066;-69
2021/10/14 05:58:33;;;;;;;10.52;5.75;;;6.90;99.90;;;6.48;100.00;102330.41;4117036;28;20027;-69
2021/10/14 06:00:34;;;;;;;6.90;5.60;;;6.90;99.90;;;6.38;100.00;102325.81;4117910;28;20080;-69
2021/10/14 06:02:35;;;;;;;8.15;6.07;;;6.80;99.90;;;6.37;100.00;102327.56;4116751;28;20035;-69
2021/10/14 06:04:36;;;;;;;7.38;5.97;;;6.90;99.90;;;6.39;100.00;102323.06;4117943;28;20027;-69
2021/10/14 06:06:37;;;;;;;7.70;6.10;;;6.90;99.90;;;6.39;100.00;102317.00;4117393;28;20122;-69
2021/10/14 06:08:38;;;;;;;9.77;6.97;;;6.80;99.90;;;6.44;100.00;102312.34;4116438;28;20026;-69
2021/10/14 06:10:39;;;;;;;7.57;5.82;;;6.90;99.90;;;6.45;100.00;102316.66;4116805;28;20031;-69
2021/10/14 06:12:40;;;;;;;8.20;6.32;;;6.80;99.90;;;6.55;100.00;102304.66;4116886;28;20054;-69
2021/10/14 06:14:42;;;;;;;6.78;6.00;;;6.90;99.90;;;6.58;100.00;102305.31;4100679;29;20426;-69
2021/10/14 06:16:43;;;;;;;8.52;6.35;;;6.90;99.90;;;6.53;100.00;102303.91;4132647;28;20375;-69
2021/10/14 06:18:44;;;;;;;8.20;5.90;;;6.90;99.90;;;6.49;100.00;102305.88;4116700;28;20046;-69
2021/10/14 06:20:45;;;;;;;6.68;5.30;;;6.90;99.90;;;6.53;100.00;102307.41;4117596;28;20038;-69
2021/10/14 06:22:46;;;;;;;8.15;6.10;;;6.90;99.90;;;6.57;100.00;102303.63;4117730;28;20049;-69
2021/10/14 06:24:47;;;;;;;5.70;5.03;;;7.00;99.90;;;6.56;100.00;102295.88;4118207;28;20033;-68
2021/10/14 06:26:48;;;;;;;7.03;5.63;;;6.90;99.90;;;6.56;100.00;102298.50;4098729;28;20040;-68
2021/10/14 06:28:49;;;;;;;6.57;5.63;;;6.90;99.90;;;6.53;100.00;102302.16;4117545;28;20449;-68
2021/10/14 06:30:52;;;;;;;9.25;5.97;;;6.90;99.90;;;6.56;100.00;102304.59;4118257;28;20494;-69
2021/10/14 06:32:53;;;;;;;6.47;5.78;;;6.90;99.90;;;6.58;99.34;102302.72;4101096;28;20020;-69
2021/10/14 06:34:54;;;;;;;6.68;5.40;;;6.90;99.90;;;6.61;99.06;102302.53;4118537;28;20034;-68
2021/10/14 06:36:55;;;;;;;7.15;5.95;;;6.90;99.90;;;6.57;98.79;102300.19;4118694;28;20050;-68
2021/10/14 06:38:56;;;;;;;9.27;5.75;;;6.90;99.90;;;6.66;98.75;102305.69;4117534;28;20031;-68
2021/10/14 06:40:57;;;;;;;6.97;5.35;;;6.90;99.90;;;6.55;98.25;102295.03;4118505;28;20438;-69
2021/10/14 06:42:58;;;;;;;8.68;5.68;;;7.00;99.90;;;6.54;98.75;102303.81;4117356;28;20038;-69
2021/10/14 06:44:59;;;;;;;7.25;5.22;;;7.00;99.90;;;6.49;99.08;102300.63;4118858;28;20711;-69
2021/10/14 06:47:00;;;;;;;6.80;5.78;;;7.00;99.90;;;6.54;98.88;102305.63;4118782;28;20034;-68
2021/10/14 06:49:01;;;;;;;6.93;4.97;;;7.00;99.90;;;6.51;98.81;102308.44;4118555;28;20736;-68
2021/10/14 06:51:02;;;;;;;7.95;5.70;;;6.90;99.90;;;6.51;98.76;102309.25;4100900;28;20046;-68
2021/10/14 06:53:08;;;;;;;7.25;5.82;;;7.00;99.90;;;6.53;98.57;102317.03;4117124;28;20062;-68
2021/10/14 06:55:10;;;;;;;7.93;6.20;;;7.00;99.90;;;6.57;97.90;102316.75;4116762;28;20030;-70
2021/10/14 06:57:11;;;;;;;7.50;5.70;;;6.90;99.90;;;6.53;98.17;102309.16;4118617;28;20437;-69
2021/10/14 06:59:12;;;;;;;6.55;5.25;;;6.90;99.90;;;6.39;98.16;102290.81;4119008;28;20173;-69
2021/10/14 07:01:15;;;;;;;6.63;5.05;;;7.00;99.90;;;6.64;98.08;102310.22;4119009;28;20027;-69
2021/10/14 07:03:16;;;;;;;7.68;5.10;;;7.00;99.90;;;6.56;98.37;102314.22;4118894;28;20035;-69
2021/10/14 07:05:17;;;;;;;10.77;5.82;;;7.00;99.90;;;6.48;99.54;102312.03;4118473;28;20513;-69
2021/10/14 07:07:18;;;;;;;6.30;4.95;;;7.00;99.90;;;6.51;99.37;102314.47;4117653;28;20031;-69
2021/10/14 07:09:18;;;;;;;8.90;5.30;;;7.00;99.90;;;6.59;99.73;102314.03;4101541;28;20027;-69
2021/10/14 07:11:21;;;;;;;8.55;5.63;;;7.00;99.90;;;6.64;99.20;102310.22;4117589;28;20030;-69
2021/10/14 07:13:23;;;;;;;6.38;5.30;;;7.00;99.90;;;6.71;99.64;102308.06;4117486;28;20022;-69
2021/10/14 07:15:24;;;;;;;7.03;5.30;;;7.10;99.90;;;6.83;99.30;102311.72;4117550;28;20035;-69
2021/10/14 07:17:25;;;;;;;7.72;5.55;;;7.10;99.90;;;6.68;100.00;102295.97;4118627;28;20097;-69
2021/10/14 07:19:26;;;;;;;7.97;5.15;;;7.20;99.90;;;6.78;100.00;102298.03;4117480;28;20062;-69
2021/10/14 07:21:28;;;;;;;7.57;5.22;;;7.20;99.90;;;6.82;100.00;102300.38;4117170;28;20027;-69
2021/10/14 07:23:29;;;;;;;5.35;4.47;;;7.30;99.90;;;6.87;100.00;102305.34;4117541;28;20107;-69
2021/10/14 07:25:30;;;;;;;6.28;5.20;;;7.20;99.90;;;6.84;100.00;102300.28;4118589;28;20019;-69
2021/10/14 07:27:31;;;;;;;5.85;5.15;;;7.30;99.90;;;6.85;100.00;102301.97;4118707;28;20031;-69
2021/10/14 07:29:32;;;;;;;5.68;4.85;;;7.30;99.90;;;6.87;100.00;102294.88;4118729;28;20023;-69
2021/10/14 07:31:33;;;;;;;11.55;5.50;;;7.30;99.90;;;6.85;100.00;102294.09;4117578;28;20026;-69
2021/10/14 07:33:33;;;;;;;7.68;5.38;;;7.40;99.90;;;6.91;100.00;102297.19;4117531;28;20034;-69
2021/10/14 07:35:38;;;;;;;9.00;5.93;;;7.40;99.90;;;6.98;100.00;102302.91;4117229;28;20038;-69
2021/10/14 07:37:39;;;;;;;18.08;7.20;;;7.40;99.90;;;7.08;100.00;102298.75;4100526;28;20089;-69
2021/10/14 07:39:40;;;;;;;14.75;5.85;;;7.50;99.90;;;7.21;100.00;102300.53;4104860;28;20034;-69
2021/10/14 07:41:41;;;;;;;11.73;6.60;;;7.60;99.90;;;7.09;100.00;102293.44;4118555;28;20078;-69
2021/10/14 07:43:42;;;;;;;10.18;6.47;;;7.60;99.90;;;7.25;100.00;102303.81;4118591;28;20133;-69
2021/10/14 07:45:44;;;;;;;21.00;9.35;;;7.60;99.90;;;7.29;100.00;102307.91;4118298;28;20031;-69
2021/10/14 07:47:45;;;;;;;13.50;6.25;;;7.70;99.90;;;7.09;100.00;102279.47;4118678;28;20026;-69
2021/10/14 07:49:46;;;;;;;10.63;5.93;;;7.70;99.90;;;7.28;100.00;102305.41;4118361;28;20521;-69
2021/10/14 07:51:47;;;;;;;10.23;6.45;;;7.80;99.90;;;7.30;100.00;102299.09;4118395;28;20108;-69
2021/10/14 07:53:48;;;;;;;6.45;5.68;;;7.80;99.90;;;7.39;100.00;102309.03;4117014;28;20058;-69
2021/10/14 07:55:49;;;;;;;8.85;5.80;;;7.90;99.90;;;7.45;100.00;102307.78;4118322;28;20043;-69
2021/10/14 07:57:50;;;;;;;6.55;5.40;;;7.90;99.90;;;7.47;100.00;102312.00;4118525;28;20023;-69
2021/10/14 07:59:51;;;;;;;8.90;4.70;;;8.00;99.90;;;7.53;100.00;102308.13;4118227;28;20070;-69
2021/10/14 08:01:52;;;;;;;6.38;5.38;;;8.10;99.90;;;7.49;100.00;102297.00;4118084;28;20611;-70
2021/10/14 08:03:53;;;;;;;7.78;5.18;;;8.00;99.90;;;7.62;100.00;102304.91;4118116;28;20407;-70
2021/10/14 08:05:54;;;;;;;6.38;5.47;;;8.10;99.90;;;7.58;100.00;102303.44;4117850;28;20640;-70
2021/10/14 08:07:55;;;;;;;8.15;4.90;;;8.20;99.90;;;7.72;100.00;102312.13;4118167;28;20375;-69
2021/10/14 08:09:56;;;;;;;6.18;4.40;;;8.20;99.90;;;7.72;100.00;102306.88;4118010;28;20506;-69
2021/10/14 08:11:57;;;;;;;5.78;4.80;;;8.30;99.90;;;7.84;100.00;102309.63;4118195;28;20038;-69
2021/10/14 08:13:57;;;;;;;8.65;5.20;;;8.40;99.90;;;7.99;100.00;102309.47;4118112;28;20053;-69
2021/10/14 08:15:59;;;;;;;7.72;5.45;;;8.40;99.90;;;7.98;100.00;102304.31;4116736;28;20537;-69
2021/10/14 08:17:59;;;;;;;6.78;5.40;;;8.40;99.90;;;7.88;100.00;102300.63;4116855;28;20070;-70
2021/10/14 08:20:00;;;;;;;8.07;5.30;;;8.50;99.90;;;7.87;100.00;102304.19;4116498;28;20031;-70
2021/10/14 08:22:01;;;;;;;9.23;5.07;;;8.50;99.90;;;8.04;100.00;102304.75;4116892;28;20046;-70
2021/10/14 08:24:03;;;;;;;9.50;5.88;;;8.60;99.90;;;8.02;100.00;102308.44;4116676;28;20468;-70
2021/10/14 08:26:04;;;;;;;7.38;5.45;;;8.60;99.90;;;8.07;100.00;102303.69;4117799;28;20031;-69
2021/10/14 08:28:05;;;;;;;7.50;5.55;;;8.60;99.90;;;8.15;100.00;102309.31;4116507;28;20019;-70